Deer Lake Airport


Codes: CYVZ/YVZ
Name: Deer Lake Airport
City: Deer Lake
Country: Canada
Elevation: 1092 ft.
Wikipedia:

Photos at Deer Lake Airport


   Photos courtesy of SpottingLog. You can add your own sightings and photos by signing up for a free trial today.



No photos found.

Weather at Deer Lake Airport


Time (UTC)DescriptionTempratureWindCloud coverageVisibilityPressureHumidity
23-May-2024 21:00Light Rain3°C4 mph, N100%0m1016hPa97%
24-May-2024 00:00Overcast Clouds4°C2 mph, N99%10000m1017hPa93%
24-May-2024 03:00Overcast Clouds3°C0 mph, N99%10000m1017hPa96%
24-May-2024 06:00Broken Clouds-2°C2 mph, SW71%10000m1018hPa99%
24-May-2024 09:00Overcast Clouds-3°C4 mph, NE86%10000m1018hPa100%
24-May-2024 12:00Overcast Clouds1°C9 mph, E93%5643m1017hPa96%
24-May-2024 15:00Overcast Clouds5°C11 mph, E100%10000m1014hPa79%
24-May-2024 18:00Light Rain5°C11 mph, E100%10000m1012hPa86%
24-May-2024 21:00Light Rain6°C16 mph, E100%10000m1008hPa90%
25-May-2024 00:00Light Rain8°C16 mph, E100%10000m1005hPa91%
25-May-2024 03:00Moderate Rain7°C18 mph, E100%10000m1003hPa93%
25-May-2024 06:00Light Rain7°C16 mph, E100%10000m1001hPa94%
25-May-2024 09:00Light Rain7°C13 mph, E100%10000m999hPa95%
25-May-2024 12:00Light Rain6°C16 mph, E100%10000m999hPa95%
25-May-2024 15:00Light Rain3°C9 mph, N100%0m1001hPa97%
25-May-2024 18:00Light Rain4°C11 mph, N100%0m1002hPa97%
25-May-2024 21:00Light Rain4°C11 mph, N100%0m1003hPa97%
26-May-2024 00:00Light Rain4°C9 mph, N100%417m1004hPa98%
26-May-2024 03:00Light Rain4°C9 mph, S100%407m1005hPa98%
26-May-2024 06:00Overcast Clouds5°C7 mph, S100%4605m1006hPa98%
26-May-2024 09:00Overcast Clouds5°C7 mph, S100%1601m1007hPa99%
26-May-2024 12:00Overcast Clouds5°C7 mph, S100%10000m1008hPa96%
26-May-2024 15:00Overcast Clouds7°C7 mph, SW100%10000m1009hPa88%
26-May-2024 18:00Light Rain9°C7 mph, SW100%10000m1009hPa74%
26-May-2024 21:00Light Rain9°C4 mph, SW100%10000m1010hPa77%
27-May-2024 00:00Broken Clouds11°C4 mph, W80%10000m1009hPa61%
27-May-2024 03:00Broken Clouds7°C2 mph, N81%10000m1011hPa85%
27-May-2024 06:00Overcast Clouds6°C4 mph, NW90%10000m1011hPa86%
27-May-2024 09:00Broken Clouds4°C4 mph, NW82%10000m1011hPa94%
27-May-2024 12:00Overcast Clouds6°C4 mph, NW89%10000m1011hPa89%
27-May-2024 15:00Overcast Clouds8°C4 mph, NW100%10000m1011hPa74%
27-May-2024 18:00Overcast Clouds9°C4 mph, NW100%10000m1011hPa62%
27-May-2024 21:00Overcast Clouds10°C7 mph, N100%10000m1010hPa62%
28-May-2024 00:00Light Rain10°C7 mph, N99%10000m1010hPa64%
28-May-2024 03:00Overcast Clouds7°C7 mph, N95%10000m1011hPa84%
28-May-2024 06:00Light Rain6°C9 mph, NW98%6485m1010hPa98%
28-May-2024 09:00Light Rain7°C9 mph, N100%0m1010hPa98%
28-May-2024 12:00Light Rain7°C13 mph, NE100%10000m1012hPa96%
28-May-2024 15:00Light Rain7°C11 mph, NE100%10000m1015hPa87%
28-May-2024 18:00Overcast Clouds14°C13 mph, N100%10000m1016hPa52%